Albert J Ellis Airport
KOAJ : now visible

Airfield :











YOU CAN JOIN US ON...

 
LOGIN :

Register | Disclaimer

   EN    FR    IT 

 









Legend :    VFR   Marginal VFR   IFR   Intensive IFR   Very Intensive IFR
Visi :
Ceiling :
>= 8 km
>= 3000ft
5 to 8 km
1000 to 3000 ft
1500m to 5 km
500 to 1000 ft
800 to 1500m
200 to 500 ft
< 800m
< 200 ft
Symbols :   Thunderstorms  Fog  Heavy snow  Heavy precipitations  Wind > 20 kt






- Airport Elevation : 94 ft


KOAJ - Albert J Ellis

CURRENT METAR :
  • 121856Z AUTO 03009KT 10SM CLR 09/M01 A3057 RMK AO2 SLPNO T00941006

EXPIRED METARs :
  • 121756Z AUTO 04013G16KT 10SM CLR 09/M01 A3059 RMK AO2 SLPNO 6//// T00891011
  • 121656Z AUTO 01012KT 10SM CLR 08/00 A3062 RMK AO2 SLPNO T00780000
  • 121556Z AUTO 03013KT 10SM CLR 07/00 A3065 RMK AO2 SLPNO T00720000 TSNO

TAF KOAJ
Valid from the 12 at 18:00 until the 13 at 18:00 UTC


121721Z 1218/1318 04010G15KT P6SM SKC
FM122300 04004KT P6SM FEW025 SCT040
FM130800 04004KT P6SM BKN020
FM131600 05006KT P6SM VCSH SCT005 OVC020 AMD LTD TO CLD VIS AND WIND



MET'MAP, your aeronautical weather chart ! - Copyright ORBIFLY December 2007 - Disclaimer

ORBIFLY MET'MAP TEAM :

Programming & Development : Alexandra Zaïnal
Concept & original design : Baudouin d'Aumeries
Assistance for programming : Marc-Olivier Méhu
Technical & hardware support : Manuel Goepfert

Contact : metmap@orbifly.com




SOURCES & CREDITS :

   NOAA       Earth
Advisory